Bukit Panjang, Singapore
Current Conditions -  °F | °C
As of 11:00 PM on Monday 24 Nov 2014 (Local Time) from WSSL Reporting Station
Broken Clouds Broken Clouds  
Wind Chill: 81°   Ceiling: 15000
Heat Index: 86°   Visibility: 6mi
Dew Point: 75°   Wind: 7mph
Humidity: 84%   Direction: 30°NNE
Pressure: 29.83"   Gusts: NA
Location:  1.39°N, 103.78°E
Report Text: WSSL 241500Z 03006KT 9999 FEW018 BKN150 27/24 Q1010 RMK 1430ZQ1010
Loading
Personal Weather Stations






























Interactive Weather Map New forecast layout! Learn more

10-Day Weather Forecast

Advertisements
Track Severe Weather on mobile